Time;durP1;ratioP1;P1;durP2;ratioP2;P2;SDS_P1;SDS_P2;PMS_P1;PMS_P2;Temp;Humidity;BMP_temperature;BMP_pressure;BME280_temperature;BME280_humidity;BME280_pressure;Samples;Min_cycle;Max_cycle;Signal;HPM_P1;HPM_P2
2022/03/03 00:00:00;;;;;;;9.88;8.38;;;21.40;37.80;;;;;;4991887;28;20046;-58
2022/03/03 00:02:26;;;;;;;11.20;9.02;;;21.30;37.80;;;;;;4991229;28;20041;-58
2022/03/03 00:04:51;;;;;;;9.40;8.27;;;21.30;37.70;;;;;;4993156;28;20497;-59
2022/03/03 00:07:17;;;;;;;10.30;9.20;;;21.30;37.80;;;;;;4991934;28;20042;-58
2022/03/03 00:09:43;;;;;;;9.82;8.82;;;21.30;37.80;;;;;;4992401;28;20042;-58
2022/03/03 00:12:08;;;;;;;10.23;9.02;;;21.30;37.80;;;;;;4989567;28;20046;-59
2022/03/03 00:14:34;;;;;;;10.18;9.05;;;21.30;37.80;;;;;;4991213;28;20116;-58
2022/03/03 00:16:59;;;;;;;10.43;9.40;;;21.30;37.70;;;;;;4994863;28;20466;-60
2022/03/03 00:19:25;;;;;;;10.82;9.50;;;21.20;37.60;;;;;;4992396;28;20497;-58
2022/03/03 00:21:50;;;;;;;10.13;8.93;;;21.20;37.60;;;;;;4992874;28;20054;-58
2022/03/03 00:24:16;;;;;;;10.48;9.32;;;21.20;37.60;;;;;;4991560;28;20050;-59
2022/03/03 00:26:42;;;;;;;11.00;9.85;;;21.20;37.60;;;;;;4987966;28;20048;-58
2022/03/03 00:29:09;;;;;;;11.52;9.07;;;21.20;37.60;;;;;;4990728;28;20149;-59
2022/03/03 00:31:34;;;;;;;10.25;9.15;;;21.20;37.60;;;;;;4994180;28;20054;-58
2022/03/03 00:34:00;;;;;;;10.68;9.60;;;21.10;37.40;;;;;;4993003;28;20064;-58
2022/03/03 00:36:27;;;;;;;10.73;9.63;;;21.10;37.50;;;;;;4993695;28;20081;-58
2022/03/03 00:38:52;;;;;;;10.52;9.50;;;21.10;37.40;;;;;;4991792;28;20049;-59
2022/03/03 00:41:18;;;;;;;10.10;9.10;;;21.20;37.50;;;;;;4990615;28;20058;-58
2022/03/03 00:43:44;;;;;;;10.27;9.13;;;21.10;37.50;;;;;;4978785;28;20073;-58
2022/03/03 00:46:10;;;;;;;11.18;10.00;;;21.10;37.50;;;;;;4992129;28;20109;-58
2022/03/03 00:48:35;;;;;;;10.43;9.30;;;21.10;37.40;;;;;;4989237;28;20050;-58
2022/03/03 00:51:06;;;;;;;11.35;10.02;;;21.10;37.50;;;;;;4993727;28;20049;-58
2022/03/03 00:53:36;;;;;;;;;;;21.10;37.50;;;;;;4989049;28;20058;-59
2022/03/03 00:56:02;;;;;;;11.73;9.48;;;21.10;37.30;;;;;;4992865;28;19926;-59
2022/03/03 00:58:27;;;;;;;10.05;8.98;;;21.00;37.60;;;;;;4992342;28;20045;-58
2022/03/03 01:00:53;;;;;;;10.68;9.60;;;21.00;37.70;;;;;;4992121;28;20497;-58
2022/03/03 01:03:18;;;;;;;11.77;9.70;;;21.00;37.60;;;;;;4990782;28;20095;-57
2022/03/03 01:05:44;;;;;;;10.85;9.30;;;21.00;37.50;;;;;;4991688;28;20418;-59
2022/03/03 01:08:10;;;;;;;12.23;9.50;;;21.00;37.50;;;;;;4991010;28;20057;-58
2022/03/03 01:10:39;;;;;;;10.43;9.25;;;21.00;37.50;;;;;;4990328;28;20052;-58
2022/03/03 01:13:05;;;;;;;11.23;8.68;;;21.00;37.40;;;;;;4991263;28;20069;-58
2022/03/03 01:15:32;;;;;;;10.05;9.02;;;20.90;37.40;;;;;;4994840;28;20633;-58
2022/03/03 01:17:58;;;;;;;11.85;8.82;;;20.90;37.30;;;;;;4994926;28;20062;-58
2022/03/03 01:20:24;;;;;;;11.75;8.98;;;20.90;37.40;;;;;;4995592;28;20129;-59
2022/03/03 01:22:50;;;;;;;12.05;9.38;;;20.90;37.40;;;;;;4991171;28;20054;-58
2022/03/03 01:25:16;;;;;;;11.43;9.48;;;20.90;37.30;;;;;;4995373;28;20056;-59
2022/03/03 01:27:41;;;;;;;11.32;9.40;;;20.90;37.40;;;;;;4995340;28;20108;-60
2022/03/03 01:30:07;;;;;;;9.80;8.80;;;20.90;37.30;;;;;;4995310;28;20398;-57
2022/03/03 01:32:33;;;;;;;10.18;8.65;;;20.80;37.20;;;;;;4993884;28;20073;-58
2022/03/03 01:34:59;;;;;;;9.80;8.90;;;20.90;37.30;;;;;;4995526;28;20469;-58
2022/03/03 01:37:25;;;;;;;10.27;8.93;;;20.90;37.30;;;;;;4991221;28;20057;-59
2022/03/03 01:39:50;;;;;;;10.23;9.18;;;20.80;37.20;;;;;;4998180;28;20061;-58
2022/03/03 01:42:19;;;;;;;10.82;9.73;;;20.80;37.20;;;;;;4995627;28;20038;-58
2022/03/03 01:44:46;;;;;;;10.55;9.52;;;20.80;37.10;;;;;;4994648;28;20057;-59
2022/03/03 01:47:25;;;;;;;11.57;9.30;;;20.80;37.20;;;;;;4993860;28;20514;-58
2022/03/03 01:49:54;;;;;;;9.82;8.93;;;20.80;37.10;;;;;;4991132;28;20050;-59
2022/03/03 01:52:21;;;;;;;10.40;8.82;;;20.80;37.20;;;;;;4994582;28;20143;-57
2022/03/03 01:54:47;;;;;;;12.85;8.75;;;20.70;37.10;;;;;;4993984;28;20720;-58
2022/03/03 01:57:15;;;;;;;11.43;9.93;;;20.70;37.10;;;;;;4994920;28;20081;-60
2022/03/03 01:59:40;;;;;;;9.60;8.75;;;20.70;37.10;;;;;;4993570;28;20046;-58
2022/03/03 02:02:08;;;;;;;10.60;9.60;;;20.70;37.10;;;;;;4993210;28;20057;-58
2022/03/03 02:04:34;;;;;;;8.60;7.75;;;20.70;37.10;;;;;;5005675;28;20466;-58
2022/03/03 02:07:00;;;;;;;11.15;8.70;;;20.70;37.10;;;;;;4994064;28;20048;-58
2022/03/03 02:09:26;;;;;;;9.30;8.40;;;20.70;37.00;;;;;;4995619;28;20529;-58
2022/03/03 02:11:52;;;;;;;9.95;8.93;;;20.70;37.00;;;;;;5009713;28;20445;-58
2022/03/03 02:14:18;;;;;;;9.60;8.70;;;20.70;36.90;;;;;;4993722;28;20042;-58
2022/03/03 02:16:43;;;;;;;10.57;9.07;;;20.70;36.90;;;;;;4996912;28;20050;-58
2022/03/03 02:19:18;;;;;;;11.02;9.05;;;20.60;36.90;;;;;;4979252;28;20394;-58
2022/03/03 02:21:50;;;;;;;8.85;7.95;;;20.60;36.90;;;;;;5009490;28;20082;-58
2022/03/03 02:24:20;;;;;;;9.68;8.70;;;20.60;36.80;;;;;;4996330;28;20056;-58
2022/03/03 02:26:47;;;;;;;9.30;8.30;;;20.60;36.90;;;;;;5011551;28;20050;-58
2022/03/03 02:29:12;;;;;;;10.05;9.05;;;20.60;36.90;;;;;;4994351;28;20069;-57
2022/03/03 02:31:38;;;;;;;9.43;8.43;;;20.60;36.80;;;;;;4993734;28;20077;-60
2022/03/03 02:34:04;;;;;;;9.25;8.35;;;20.50;36.70;;;;;;4992614;28;20093;-58
2022/03/03 02:36:30;;;;;;;8.70;7.80;;;20.60;36.80;;;;;;4994589;28;20046;-59
2022/03/03 02:38:58;;;;;;;9.18;8.35;;;20.60;36.80;;;;;;4993950;28;20057;-58
2022/03/03 02:41:25;;;;;;;9.25;8.30;;;20.50;36.70;;;;;;4998218;28;20052;-58
2022/03/03 02:43:51;;;;;;;10.10;8.98;;;20.50;36.70;;;;;;4994166;28;20054;-59
2022/03/03 02:46:17;;;;;;;9.57;8.57;;;20.50;36.60;;;;;;4989724;28;20072;-58
2022/03/03 02:48:43;;;;;;;9.35;8.45;;;20.50;36.70;;;;;;4994208;28;20050;-58
2022/03/03 02:51:09;;;;;;;9.82;8.82;;;20.50;36.70;;;;;;4994305;28;20552;-58
2022/03/03 02:53:35;;;;;;;9.48;8.13;;;20.50;36.60;;;;;;4994215;28;20195;-59
2022/03/03 02:56:05;;;;;;;9.82;8.93;;;20.50;36.60;;;;;;4991853;28;20046;-58
2022/03/03 02:58:31;;;;;;;9.77;8.70;;;20.50;36.60;;;;;;4994277;28;20061;-58
2022/03/03 03:00:57;;;;;;;9.93;9.02;;;20.40;36.50;;;;;;4987069;28;20045;-58
2022/03/03 03:03:23;;;;;;;9.38;8.48;;;20.40;36.50;;;;;;4989478;28;20050;-58
2022/03/03 03:05:48;;;;;;;8.95;8.02;;;20.40;36.60;;;;;;4989565;28;20095;-58
2022/03/03 03:08:15;;;;;;;9.40;8.60;;;20.40;36.40;;;;;;4992575;28;20130;-58
2022/03/03 03:10:41;;;;;;;9.75;8.80;;;20.40;36.50;;;;;;4991667;28;20081;-58
2022/03/03 03:13:07;;;;;;;9.10;8.30;;;20.40;36.40;;;;;;4991748;28;20702;-58
2022/03/03 03:15:34;;;;;;;9.52;8.52;;;20.40;36.40;;;;;;4989377;28;20073;-58
2022/03/03 03:18:09;;;;;;;9.40;8.50;;;20.40;36.40;;;;;;4992392;28;20046;-58
2022/03/03 03:20:36;;;;;;;9.70;8.70;;;20.40;36.40;;;;;;4992164;28;20061;-59
2022/03/03 03:23:02;;;;;;;9.18;8.27;;;20.40;36.40;;;;;;4991376;28;20050;-59
2022/03/03 03:25:27;;;;;;;9.90;8.93;;;20.40;36.40;;;;;;4992211;28;20041;-58
2022/03/03 03:27:53;;;;;;;8.85;8.05;;;20.40;36.40;;;;;;4991985;28;20061;-59
2022/03/03 03:30:19;;;;;;;8.65;7.85;;;20.30;37.00;;;;;;4991615;28;20069;-58
2022/03/03 03:32:44;;;;;;;9.02;8.20;;;20.30;36.30;;;;;;4991558;28;20072;-58
2022/03/03 03:35:10;;;;;;;9.73;8.82;;;20.30;36.40;;;;;;4993099;28;20061;-58
2022/03/03 03:37:36;;;;;;;8.77;7.97;;;20.30;36.30;;;;;;4992489;28;20057;-58
2022/03/03 03:40:07;;;;;;;8.95;8.00;;;20.30;36.30;;;;;;5000873;28;20046;-57
2022/03/03 03:42:33;;;;;;;10.10;9.10;;;20.30;36.20;;;;;;4987672;28;20058;-58
2022/03/03 03:44:59;;;;;;;9.60;8.73;;;20.30;36.20;;;;;;4991897;28;20140;-59
2022/03/03 03:47:25;;;;;;;8.77;7.90;;;20.30;36.20;;;;;;4989970;28;20089;-58
2022/03/03 03:49:51;;;;;;;8.68;7.72;;;20.20;36.20;;;;;;4988204;28;20088;-58
2022/03/03 03:52:16;;;;;;;9.10;8.20;;;20.20;36.10;;;;;;4993087;28;20123;-58
2022/03/03 03:54:42;;;;;;;10.00;8.73;;;20.20;36.10;;;;;;4993460;28;20158;-58
2022/03/03 03:57:07;;;;;;;9.13;8.13;;;20.20;36.10;;;;;;4992711;28;20050;-58
2022/03/03 03:59:33;;;;;;;9.25;8.40;;;20.20;36.10;;;;;;4990561;28;20073;-57
2022/03/03 04:01:58;;;;;;;10.23;9.23;;;20.20;36.10;;;;;;4991123;28;20058;-58
2022/03/03 04:04:24;;;;;;;8.63;7.85;;;20.20;36.00;;;;;;4990318;28;20089;-58
2022/03/03 04:06:50;;;;;;;9.20;8.30;;;20.20;36.10;;;;;;4991604;28;20088;-57
2022/03/03 04:09:15;;;;;;;9.27;8.38;;;20.20;36.00;;;;;;4990900;28;20042;-58
2022/03/03 04:11:41;;;;;;;8.70;7.90;;;20.20;36.00;;;;;;4991244;28;20050;-58
2022/03/03 04:14:06;;;;;;;9.38;8.48;;;20.20;36.00;;;;;;4993845;28;20496;-59
2022/03/03 04:16:32;;;;;;;9.05;8.25;;;20.20;36.70;;;;;;4990455;28;20116;-58
2022/03/03 04:18:58;;;;;;;8.80;8.00;;;20.10;35.90;;;;;;4991232;28;20080;-58
2022/03/03 04:21:23;;;;;;;9.20;8.30;;;20.10;35.90;;;;;;4993803;28;20117;-57
2022/03/03 04:23:49;;;;;;;9.40;8.50;;;20.10;35.90;;;;;;4989588;28;20108;-57
2022/03/03 04:26:15;;;;;;;8.80;8.00;;;20.10;35.90;;;;;;4987705;28;20046;-57
2022/03/03 04:28:41;;;;;;;9.07;8.25;;;20.10;35.90;;;;;;4993839;28;20069;-58
2022/03/03 04:31:06;;;;;;;9.90;9.00;;;20.10;35.80;;;;;;4991394;28;20081;-57
2022/03/03 04:33:32;;;;;;;8.82;7.95;;;20.10;35.80;;;;;;4990218;28;20038;-58
2022/03/03 04:35:58;;;;;;;8.95;8.15;;;20.10;35.80;;;;;;4990783;28;20042;-59
2022/03/03 04:38:25;;;;;;;9.45;8.38;;;20.00;35.80;;;;;;4994040;28;20056;-58
2022/03/03 04:40:50;;;;;;;8.88;8.02;;;20.00;35.80;;;;;;4988003;28;20046;-57
2022/03/03 04:43:16;;;;;;;9.23;8.32;;;20.00;35.70;;;;;;4991801;28;20390;-58
2022/03/03 04:45:42;;;;;;;8.70;7.88;;;20.10;35.80;;;;;;4991008;28;20065;-57
2022/03/03 04:48:09;;;;;;;8.63;7.82;;;20.00;35.80;;;;;;4993470;28;20048;-57
2022/03/03 04:50:34;;;;;;;8.77;7.90;;;20.00;35.70;;;;;;4995772;28;20042;-57
2022/03/03 04:53:00;;;;;;;8.35;7.57;;;20.00;35.70;;;;;;4992407;28;20126;-58
2022/03/03 04:55:26;;;;;;;9.02;8.13;;;20.00;35.70;;;;;;4995769;28;20037;-58
2022/03/03 04:57:51;;;;;;;8.82;7.57;;;20.00;35.70;;;;;;4994453;28;20081;-58
2022/03/03 05:00:17;;;;;;;9.75;8.75;;;20.00;35.70;;;;;;4993594;28;20057;-58
2022/03/03 05:02:43;;;;;;;9.93;8.13;;;20.00;35.70;;;;;;4996496;28;20042;-59
2022/03/03 05:05:09;;;;;;;8.93;8.02;;;20.00;35.70;;;;;;4994464;28;20050;-59
2022/03/03 05:07:35;;;;;;;9.10;8.20;;;20.00;35.70;;;;;;4996696;28;20051;-58
2022/03/03 05:10:00;;;;;;;8.90;8.00;;;20.00;35.70;;;;;;4994431;28;20043;-57
2022/03/03 05:12:26;;;;;;;8.05;7.18;;;20.00;35.60;;;;;;4994038;28;20046;-58
2022/03/03 05:14:52;;;;;;;11.10;8.15;;;19.90;35.60;;;;;;4993008;28;20048;-57
2022/03/03 05:17:18;;;;;;;11.52;8.30;;;19.90;35.60;;;;;;4995673;28;20045;-59
2022/03/03 05:19:44;;;;;;;10.25;7.88;;;19.90;35.50;;;;;;4996911;28;20096;-58
2022/03/03 05:22:10;;;;;;;11.82;8.23;;;19.90;35.60;;;;;;4994373;28;20042;-57
2022/03/03 05:24:38;;;;;;;9.27;8.35;;;19.90;35.50;;;;;;4995900;28;20041;-58
2022/03/03 05:27:04;;;;;;;8.82;8.05;;;19.90;35.50;;;;;;4995105;28;20050;-58
2022/03/03 05:29:29;;;;;;;8.88;7.97;;;19.90;35.50;;;;;;4993490;28;20038;-57
2022/03/03 05:31:57;;;;;;;8.13;7.30;;;19.90;35.50;;;;;;4994658;28;20046;-58
2022/03/03 05:34:23;;;;;;;11.20;8.02;;;19.90;35.50;;;;;;4996995;28;20058;-59
2022/03/03 05:36:49;;;;;;;9.32;8.10;;;19.90;35.60;;;;;;4991831;28;20085;-58
2022/03/03 05:39:16;;;;;;;8.85;7.47;;;19.90;35.40;;;;;;4998267;28;20121;-59
2022/03/03 05:41:42;;;;;;;10.43;7.43;;;19.90;35.50;;;;;;4996963;28;20050;-59
2022/03/03 05:44:12;;;;;;;7.95;7.18;;;19.90;35.70;;;;;;4992354;28;20382;-58
2022/03/03 05:46:40;;;;;;;9.82;7.07;;;19.90;35.60;;;;;;4992920;28;20061;-57
2022/03/03 05:49:07;;;;;;;8.98;7.07;;;19.90;35.70;;;;;;4990447;28;20145;-59
2022/03/03 05:51:33;;;;;;;7.70;7.00;;;20.00;35.80;;;;;;4995431;28;20049;-58
2022/03/03 05:53:58;;;;;;;8.05;7.20;;;19.90;35.70;;;;;;4996506;28;20041;-58
2022/03/03 05:56:24;;;;;;;7.90;7.10;;;19.90;35.70;;;;;;4995107;28;20089;-59
2022/03/03 05:58:51;;;;;;;7.57;6.75;;;20.00;35.70;;;;;;4996016;28;20046;-58
2022/03/03 06:01:18;;;;;;;7.53;6.82;;;20.00;35.80;;;;;;4993954;28;20046;-59
2022/03/03 06:03:49;;;;;;;8.05;6.75;;;20.00;35.90;;;;;;4992101;28;20397;-59
2022/03/03 06:06:18;;;;;;;7.65;6.95;;;20.00;35.90;;;;;;4996022;28;20674;-58
2022/03/03 06:08:52;;;;;;;8.85;7.13;;;20.00;36.00;;;;;;4994355;28;20070;-58
2022/03/03 06:11:22;;;;;;;7.68;6.88;;;20.00;36.20;;;;;;4994994;28;20046;-58
2022/03/03 06:13:51;;;;;;;7.97;7.20;;;20.00;36.30;;;;;;4994633;28;20057;-58
2022/03/03 06:16:20;;;;;;;8.23;6.75;;;20.00;36.30;;;;;;4993158;28;20137;-58
2022/03/03 06:18:48;;;;;;;7.45;6.53;;;20.00;36.30;;;;;;4993240;28;20057;-59
2022/03/03 06:21:15;;;;;;;7.75;7.00;;;20.00;36.40;;;;;;4995097;28;20398;-58
2022/03/03 06:23:41;;;;;;;7.95;7.15;;;20.00;36.40;;;;;;4993345;28;20049;-59
2022/03/03 06:26:09;;;;;;;7.30;6.55;;;20.10;36.40;;;;;;4996504;28;20053;-59
2022/03/03 06:28:35;;;;;;;7.55;6.20;;;20.10;36.40;;;;;;4996106;28;20401;-57
2022/03/03 06:31:03;;;;;;;7.57;6.32;;;20.10;36.60;;;;;;4990786;28;20058;-61
2022/03/03 06:33:29;;;;;;;6.70;6.10;;;20.10;36.60;;;;;;4995195;28;20053;-59
2022/03/03 06:35:55;;;;;;;7.13;6.43;;;20.10;36.60;;;;;;4997455;28;20508;-58
2022/03/03 06:38:21;;;;;;;7.93;7.13;;;20.10;36.90;;;;;;4997045;28;20080;-58
2022/03/03 06:40:47;;;;;;;8.55;6.65;;;20.10;36.90;;;;;;4994337;28;20770;-58
2022/03/03 06:43:12;;;;;;;7.85;7.10;;;20.20;37.00;;;;;;4994908;28;20079;-59
2022/03/03 06:45:38;;;;;;;11.00;7.47;;;20.20;37.10;;;;;;4991883;28;20065;-66
2022/03/03 06:48:05;;;;;;;10.77;6.75;;;20.20;37.10;;;;;;4992812;28;20091;-62
2022/03/03 06:50:35;;;;;;;7.60;6.80;;;20.20;37.20;;;;;;4994709;28;20813;-61
2022/03/03 06:53:02;;;;;;;7.45;6.43;;;20.20;37.20;;;;;;5007494;28;20409;-60
2022/03/03 06:55:29;;;;;;;13.48;7.22;;;20.20;37.80;;;;;;4992025;28;20050;-61
2022/03/03 06:57:57;;;;;;;7.28;6.57;;;20.30;37.00;;;;;;4994885;28;20050;-62
2022/03/03 07:00:25;;;;;;;7.47;6.78;;;20.20;36.90;;;;;;5006881;28;21242;-58
2022/03/03 07:02:52;;;;;;;8.27;6.72;;;20.20;36.70;;;;;;4994748;28;20057;-57
2022/03/03 07:05:19;;;;;;;7.03;6.32;;;20.20;36.70;;;;;;4988346;28;20042;-58
2022/03/03 07:07:47;;;;;;;6.90;6.30;;;20.30;36.90;;;;;;4977877;28;20073;-59
2022/03/03 07:10:14;;;;;;;7.40;6.43;;;20.30;36.90;;;;;;4991677;28;20038;-58
2022/03/03 07:12:40;;;;;;;7.75;6.50;;;20.30;36.90;;;;;;4998030;28;20125;-58
2022/03/03 07:15:08;;;;;;;7.82;7.13;;;20.30;36.90;;;;;;4988543;28;20120;-57
2022/03/03 07:17:44;;;;;;;7.75;6.95;;;20.30;36.80;;;;;;4991137;28;20046;-60
2022/03/03 07:20:18;;;;;;;7.07;6.35;;;20.30;36.90;;;;;;4987730;28;20513;-58
2022/03/03 07:22:59;;;;;;;7.15;6.45;;;20.30;37.00;;;;;;4988699;28;20046;-58
2022/03/03 07:25:29;;;;;;;;;;;20.30;37.20;;;;;;4992878;28;20046;-59
2022/03/03 07:28:00;;;;;;;6.68;6.07;;;20.30;37.50;;;;;;4989740;28;19930;-58
2022/03/03 07:30:26;;;;;;;6.80;6.20;;;20.20;37.40;;;;;;4992159;28;20085;-57
2022/03/03 07:33:06;;;;;;;6.68;5.70;;;20.30;37.50;;;;;;4991395;28;20241;-58
2022/03/03 07:35:34;;;;;;;7.47;6.20;;;20.30;37.40;;;;;;4992093;28;20038;-57
2022/03/03 07:38:13;;;;;;;6.90;6.20;;;20.30;37.50;;;;;;4995289;28;20054;-58
2022/03/03 07:40:41;;;;;;;6.90;6.25;;;20.30;37.50;;;;;;4992562;28;20103;-57
2022/03/03 07:43:08;;;;;;;6.68;6.10;;;20.30;38.30;;;;;;4989440;28;20144;-58
2022/03/03 07:45:34;;;;;;;7.18;6.25;;;20.30;37.50;;;;;;4994618;28;20053;-57
2022/03/03 07:47:59;;;;;;;8.55;6.10;;;20.40;38.30;;;;;;4993392;28;20049;-57
2022/03/03 07:50:27;;;;;;;7.50;6.38;;;20.30;37.60;;;;;;4994471;28;20053;-58
2022/03/03 07:52:54;;;;;;;6.70;6.05;;;20.40;37.60;;;;;;4989796;28;20097;-58
2022/03/03 07:55:21;;;;;;;5.93;5.35;;;20.40;37.60;;;;;;4992386;28;20049;-58
2022/03/03 07:58:00;;;;;;;9.23;6.50;;;20.40;37.60;;;;;;4990628;28;20109;-59
2022/03/03 08:00:34;;;;;;;7.60;6.40;;;20.40;37.50;;;;;;4990913;28;20381;-58
2022/03/03 08:03:04;;;;;;;7.22;6.57;;;20.40;37.40;;;;;;4991462;28;20121;-58
2022/03/03 08:05:31;;;;;;;6.95;6.32;;;20.40;37.40;;;;;;4991911;28;20053;-58
2022/03/03 08:08:00;;;;;;;6.07;5.47;;;20.40;37.40;;;;;;4994389;28;20045;-57
2022/03/03 08:10:27;;;;;;;6.43;5.68;;;20.40;37.30;;;;;;4989191;28;20543;-57
2022/03/03 08:12:56;;;;;;;6.97;6.20;;;20.40;37.30;;;;;;4992641;28;20125;-57
2022/03/03 08:15:22;;;;;;;7.22;6.25;;;20.50;37.30;;;;;;4989970;28;20169;-58
2022/03/03 08:17:52;;;;;;;6.10;5.50;;;20.50;37.30;;;;;;4993558;28;20607;-57
2022/03/03 08:20:19;;;;;;;7.20;6.50;;;20.50;37.20;;;;;;4991118;28;20418;-58
2022/03/03 08:22:45;;;;;;;6.40;5.75;;;20.50;37.10;;;;;;4989358;28;20486;-59
2022/03/03 08:25:14;;;;;;;7.00;5.85;;;20.50;37.10;;;;;;4991244;28;20045;-58
2022/03/03 08:27:40;;;;;;;7.88;6.78;;;20.50;37.10;;;;;;4997114;28;20052;-57
2022/03/03 08:30:11;;;;;;;7.70;5.78;;;20.50;37.00;;;;;;4998459;28;20096;-57
2022/03/03 08:32:38;;;;;;;;;;;20.50;37.00;;;;;;4992326;28;20054;-57
2022/03/03 08:35:18;;;;;;;8.15;6.43;;;20.50;37.00;;;;;;5007162;28;19973;-58
2022/03/03 08:37:51;;;;;;;7.57;6.03;;;20.50;37.00;;;;;;4990459;28;20034;-58
2022/03/03 08:40:17;;;;;;;6.88;6.18;;;20.50;37.00;;;;;;4991266;28;20479;-59
2022/03/03 08:42:56;;;;;;;7.22;5.85;;;20.50;36.90;;;;;;4989196;28;20702;-58
2022/03/03 08:45:29;;;;;;;6.32;5.70;;;20.60;37.20;;;;;;5007518;28;20089;-58
2022/03/03 08:47:59;;;;;;;7.05;6.07;;;20.50;37.00;;;;;;5009083;28;20065;-57
2022/03/03 08:50:27;;;;;;;7.40;5.85;;;20.60;37.00;;;;;;4993322;28;20057;-58
2022/03/03 08:52:55;;;;;;;6.65;5.63;;;20.60;37.00;;;;;;4987090;28;20050;-57
2022/03/03 08:55:20;;;;;;;7.22;5.50;;;20.50;37.00;;;;;;4993227;28;20057;-59
2022/03/03 08:57:46;;;;;;;8.32;5.97;;;20.50;37.00;;;;;;4993446;28;20050;-57
2022/03/03 09:00:13;;;;;;;7.57;6.10;;;20.60;37.00;;;;;;4992014;28;20157;-59
2022/03/03 09:02:43;;;;;;;6.28;5.75;;;20.60;37.00;;;;;;4991269;28;20041;-59
2022/03/03 09:05:10;;;;;;;6.50;5.68;;;20.60;36.90;;;;;;4993135;28;20053;-58
2022/03/03 09:07:36;;;;;;;6.32;5.70;;;20.60;36.90;;;;;;4992431;28;20050;-58
2022/03/03 09:10:02;;;;;;;7.20;6.43;;;20.60;36.80;;;;;;4992269;28;20030;-59
2022/03/03 09:12:28;;;;;;;7.28;6.13;;;20.60;36.80;;;;;;4990624;28;20050;-60
2022/03/03 09:14:53;;;;;;;6.38;5.70;;;20.60;36.90;;;;;;4990684;28;20038;-59
2022/03/03 09:17:19;;;;;;;6.10;5.57;;;20.60;37.60;;;;;;4994030;28;20052;-58
2022/03/03 09:19:45;;;;;;;6.30;5.55;;;20.70;37.10;;;;;;4992367;28;20191;-60
2022/03/03 09:22:10;;;;;;;6.50;5.90;;;20.60;37.10;;;;;;4989560;28;20080;-59
2022/03/03 09:24:36;;;;;;;6.38;5.78;;;20.70;37.20;;;;;;4992057;28;20296;-59
2022/03/03 09:27:04;;;;;;;6.55;5.85;;;20.70;37.30;;;;;;4981244;28;20145;-58
2022/03/03 09:29:33;;;;;;;7.35;6.32;;;20.70;37.30;;;;;;4993162;28;20053;-58
2022/03/03 09:31:59;;;;;;;6.22;5.60;;;20.70;37.50;;;;;;4991119;28;20041;-58
2022/03/03 09:34:25;;;;;;;6.40;5.70;;;20.70;37.70;;;;;;4991360;28;20062;-58
2022/03/03 09:36:50;;;;;;;6.45;5.85;;;20.70;37.80;;;;;;4995326;28;20061;-58
2022/03/03 09:39:16;;;;;;;6.10;5.50;;;20.70;38.00;;;;;;5001556;28;20049;-59
2022/03/03 09:41:42;;;;;;;5.82;5.32;;;20.80;38.10;;;;;;4998615;28;20049;-58
2022/03/03 09:44:07;;;;;;;5.55;5.05;;;20.80;38.10;;;;;;4994548;28;20046;-59
2022/03/03 09:46:36;;;;;;;5.80;5.30;;;20.80;38.20;;;;;;4995987;28;20532;-57
2022/03/03 09:49:03;;;;;;;6.25;5.53;;;20.80;38.10;;;;;;4993517;28;20092;-57
2022/03/03 09:51:29;;;;;;;5.57;5.03;;;20.80;38.10;;;;;;4993577;28;20050;-58
2022/03/03 09:53:55;;;;;;;5.70;5.20;;;20.80;38.90;;;;;;4996158;28;20057;-57
2022/03/03 09:56:21;;;;;;;6.70;5.30;;;20.80;38.10;;;;;;5001824;28;20593;-57
2022/03/03 09:58:47;;;;;;;6.20;5.60;;;20.80;38.10;;;;;;4995083;28;20056;-58
2022/03/03 10:01:13;;;;;;;6.03;5.43;;;20.80;38.10;;;;;;4994907;28;20124;-59
2022/03/03 10:03:40;;;;;;;6.20;5.40;;;20.80;38.00;;;;;;4990439;28;20481;-56
2022/03/03 10:06:06;;;;;;;5.65;5.15;;;20.90;38.10;;;;;;4993217;28;20038;-58
2022/03/03 10:08:32;;;;;;;5.22;4.72;;;20.90;38.10;;;;;;4994386;28;20038;-57
2022/03/03 10:11:00;;;;;;;5.82;5.07;;;20.90;38.20;;;;;;4990322;28;20174;-57
2022/03/03 10:13:42;;;;;;;5.28;4.63;;;20.90;39.00;;;;;;4995776;28;20133;-56
2022/03/03 10:16:08;;;;;;;5.50;5.00;;;20.90;38.50;;;;;;4991137;28;20056;-57
2022/03/03 10:18:34;;;;;;;7.32;4.93;;;21.00;38.70;;;;;;4994492;28;20034;-58
2022/03/03 10:21:02;;;;;;;5.30;4.80;;;21.00;38.80;;;;;;4996217;28;20037;-56
2022/03/03 10:23:33;;;;;;;6.22;4.93;;;21.00;38.90;;;;;;5007395;28;20116;-57
2022/03/03 10:26:00;;;;;;;5.55;4.70;;;21.00;39.00;;;;;;4992318;28;20129;-57
2022/03/03 10:28:29;;;;;;;4.93;4.53;;;21.00;39.10;;;;;;4994537;28;20041;-57
2022/03/03 10:31:07;;;;;;;4.88;4.38;;;21.00;39.10;;;;;;4991521;28;20133;-57
2022/03/03 10:33:34;;;;;;;5.10;4.60;;;21.00;39.10;;;;;;4991073;28;20046;-57
2022/03/03 10:36:10;;;;;;;6.65;4.47;;;21.00;39.90;;;;;;4995120;28;20585;-58
2022/03/03 10:38:50;;;;;;;6.82;4.57;;;21.00;39.10;;;;;;4995120;28;20046;-58
2022/03/03 10:41:31;;;;;;;5.00;4.43;;;21.00;39.10;;;;;;4992537;28;21020;-57
2022/03/03 10:43:58;;;;;;;5.07;4.30;;;21.00;39.00;;;;;;4995658;28;20530;-57
2022/03/03 10:46:23;;;;;;;5.25;4.75;;;21.00;39.00;;;;;;4988638;28;20080;-57
2022/03/03 10:48:49;;;;;;;5.22;4.72;;;21.10;39.00;;;;;;4994575;28;20501;-58
2022/03/03 10:51:16;;;;;;;5.00;4.50;;;21.00;38.90;;;;;;4996126;28;20084;-57
2022/03/03 10:53:42;;;;;;;6.57;4.80;;;21.10;38.90;;;;;;4993901;28;20466;-57
2022/03/03 10:56:15;;;;;;;5.35;4.85;;;21.10;39.00;;;;;;4991397;28;20078;-57
2022/03/03 10:58:57;;;;;;;4.85;4.43;;;21.00;38.90;;;;;;4991649;28;20045;-57
2022/03/03 11:01:26;;;;;;;6.80;4.60;;;21.10;38.80;;;;;;4993617;28;20064;-57
2022/03/03 11:03:53;;;;;;;5.15;4.65;;;21.10;38.80;;;;;;4994246;28;20085;-57
2022/03/03 11:06:24;;;;;;;5.07;4.53;;;21.10;38.70;;;;;;5006852;28;20046;-57
2022/03/03 11:08:51;;;;;;;4.68;4.20;;;21.10;38.60;;;;;;4993086;28;20046;-58
2022/03/03 11:11:17;;;;;;;4.70;4.30;;;21.10;38.60;;;;;;4989296;28;20477;-57
2022/03/03 11:13:48;;;;;;;5.07;4.32;;;21.10;38.60;;;;;;4991000;28;20038;-56
2022/03/03 11:16:18;;;;;;;5.03;4.35;;;21.10;38.50;;;;;;4995092;28;20632;-57
2022/03/03 11:18:45;;;;;;;4.70;4.30;;;21.10;38.40;;;;;;4993617;28;20549;-58
2022/03/03 11:21:13;;;;;;;7.32;4.95;;;21.10;38.30;;;;;;4993054;28;20662;-57
2022/03/03 11:23:52;;;;;;;4.85;4.35;;;21.10;38.40;;;;;;4992187;28;20065;-57
2022/03/03 11:26:31;;;;;;;5.10;4.45;;;21.10;38.20;;;;;;4993940;28;20058;-57
2022/03/03 11:29:20;;;;;;;5.47;4.22;;;21.10;38.30;;;;;;4992856;28;20042;-58
2022/03/03 11:32:07;;;;;;;4.70;4.22;;;21.10;38.30;;;;;;4993986;28;20144;-58
2022/03/03 11:34:35;;;;;;;6.55;4.18;;;21.10;38.50;;;;;;4994499;28;20507;-58
2022/03/03 11:37:07;;;;;;;4.97;4.47;;;21.10;38.60;;;;;;4990605;28;20046;-57
2022/03/03 11:39:44;;;;;;;6.72;4.13;;;21.10;38.60;;;;;;4991889;28;20041;-57
2022/03/03 11:42:31;;;;;;;4.85;4.35;;;21.10;38.70;;;;;;4989531;28;20159;-58
2022/03/03 11:45:17;;;;;;;4.88;4.30;;;21.10;38.70;;;;;;4989595;28;20057;-57
2022/03/03 11:47:45;;;;;;;4.97;4.35;;;21.10;38.80;;;;;;4994138;28;20171;-57
2022/03/03 11:50:24;;;;;;;5.03;4.38;;;21.10;38.80;;;;;;4990976;28;20073;-58
2022/03/03 11:52:53;;;;;;;5.32;4.40;;;21.10;38.90;;;;;;4993249;28;20084;-59
2022/03/03 11:55:33;;;;;;;6.82;4.72;;;21.10;38.80;;;;;;4984964;28;20070;-58
2022/03/03 11:58:18;;;;;;;6.05;4.60;;;21.10;38.90;;;;;;4991363;28;20041;-59
2022/03/03 12:01:05;;;;;;;4.57;4.15;;;21.10;38.90;;;;;;4993217;28;20065;-58
2022/03/03 12:03:52;;;;;;;5.30;4.75;;;21.10;38.90;;;;;;4991920;28;20052;-58
2022/03/03 12:06:23;;;;;;;5.10;4.60;;;21.10;38.80;;;;;;4990643;28;20054;-58
2022/03/03 12:08:48;;;;;;;6.45;4.47;;;21.10;38.80;;;;;;4990116;28;20398;-58
2022/03/03 12:11:16;;;;;;;5.32;4.82;;;21.10;38.70;;;;;;4991865;28;20042;-58
2022/03/03 12:13:51;;;;;;;5.65;4.78;;;21.20;38.70;;;;;;4992355;28;20050;-58
2022/03/03 12:16:20;;;;;;;4.95;4.25;;;21.10;38.60;;;;;;4992623;28;20097;-58
2022/03/03 12:18:50;;;;;;;5.43;3.92;;;21.20;38.60;;;;;;4996269;28;20122;-57
2022/03/03 12:21:25;;;;;;;4.83;4.33;;;21.10;38.60;;;;;;4990350;28;20073;-58
2022/03/03 12:26:51;;;;;;;8.27;4.43;;;21.20;38.40;;;;;;4992083;28;20081;-58
2022/03/03 12:29:36;;;;;;;4.75;4.35;;;21.10;38.30;;;;;;4990054;28;20046;-58
2022/03/03 12:32:24;;;;;;;4.40;4.00;;;21.20;38.30;;;;;;4990592;28;20054;-58
2022/03/03 12:34:51;;;;;;;5.30;4.20;;;21.10;38.20;;;;;;4978604;28;20061;-57
2022/03/03 12:37:17;;;;;;;4.90;4.40;;;21.10;38.20;;;;;;5004866;28;20107;-58
2022/03/03 12:39:54;;;;;;;4.22;3.83;;;21.10;38.10;;;;;;4992223;28;20054;-58
2022/03/03 12:42:21;;;;;;;4.85;4.10;;;21.10;38.10;;;;;;4992069;28;20054;-57
2022/03/03 12:44:55;;;;;;;4.90;4.40;;;21.10;38.00;;;;;;4993685;28;20064;-58
2022/03/03 12:47:52;;;;;;;4.78;4.18;;;21.20;38.10;;;;;;4993584;28;20222;-57
2022/03/03 12:50:26;;;;;;;4.35;3.95;;;21.10;38.00;;;;;;4976583;28;20930;-58
2022/03/03 12:53:18;;;;;;;4.57;3.95;;;21.10;38.00;;;;;;4986519;28;20085;-58